createdAt,value
2023-02-19T00:01:59.839Z,99934.03
2023-02-19T00:07:02.311Z,99943.47
2023-02-19T00:12:06.523Z,99944.03
2023-02-19T00:17:09.026Z,99939.75
2023-02-19T00:22:11.952Z,99923.88
2023-02-19T00:27:15.374Z,99900.34
2023-02-19T00:32:17.755Z,99889.97
2023-02-19T00:37:21.322Z,99891.00
2023-02-19T00:42:26.389Z,99906.34
2023-02-19T00:47:30.037Z,99896.47
2023-02-19T00:52:32.381Z,99915.81
2023-02-19T00:57:35.321Z,99904.66
2023-02-19T01:02:38.198Z,99901.88
2023-02-19T01:07:40.984Z,99887.66
2023-02-19T01:12:43.497Z,99889.63
2023-02-19T01:17:46.075Z,99904.63
2023-02-19T01:22:48.830Z,99920.94
2023-02-19T01:27:51.883Z,99915.69
2023-02-19T01:32:54.778Z,99907.38
2023-02-19T01:37:57.662Z,99920.66
2023-02-19T01:43:00.266Z,99921.47
2023-02-19T01:48:18.118Z,99954.41
2023-02-19T01:53:26.252Z,99942.41
2023-02-19T01:58:33.903Z,99962.09
2023-02-19T02:03:39.030Z,99957.63
2023-02-19T02:09:00.991Z,99964.41
2023-02-19T02:14:05.614Z,99931.25
2023-02-19T02:19:44.596Z,99985.31
2023-02-19T02:25:21.814Z,99978.44
2023-02-19T02:30:34.430Z,99972.25
2023-02-19T02:35:57.158Z,99985.38
2023-02-19T02:41:00.323Z,99978.63
2023-02-19T02:46:03.320Z,99987.56
2023-02-19T02:51:27.674Z,99967.81
2023-02-19T02:56:45.111Z,100000.94
2023-02-19T03:02:13.461Z,99986.91
2023-02-19T03:07:16.577Z,100002.06
2023-02-19T03:12:40.295Z,99995.31
2023-02-19T03:18:11.175Z,100005.53
2023-02-19T03:23:17.732Z,100002.53
2023-02-19T03:28:47.795Z,100016.00
2023-02-19T03:33:59.997Z,100015.84
2023-02-19T03:39:08.340Z,100016.66
2023-02-19T03:44:36.251Z,100026.84
2023-02-19T03:49:57.058Z,100036.66
2023-02-19T03:55:20.932Z,100023.78
2023-02-19T04:00:51.454Z,100030.41
2023-02-19T04:06:01.288Z,100051.81
2023-02-19T04:11:05.080Z,100030.59
2023-02-19T04:16:18.117Z,100046.53
2023-02-19T04:21:23.288Z,100047.19
2023-02-19T04:26:25.955Z,100017.09
2023-02-19T04:31:32.551Z,100062.31
2023-02-19T04:36:35.244Z,100028.72
2023-02-19T04:41:37.654Z,100040.47
2023-02-19T04:46:43.018Z,100056.00
2023-02-19T04:51:45.922Z,100065.28
2023-02-19T04:56:48.376Z,100058.47
2023-02-19T05:01:50.927Z,100024.19
2023-02-19T05:06:53.388Z,100073.94
2023-02-19T05:11:55.860Z,100071.88
2023-02-19T05:16:58.262Z,100054.59
2023-02-19T05:22:01.342Z,100034.91
2023-02-19T05:27:03.924Z,100074.50
2023-02-19T05:32:06.890Z,100056.31
2023-02-19T05:37:10.228Z,100073.41
2023-02-19T05:42:16.097Z,100084.41
2023-02-19T05:47:19.045Z,100056.38
2023-02-19T05:52:21.885Z,100093.31
2023-02-19T05:57:24.436Z,100082.47
2023-02-19T06:02:27.726Z,100064.38
2023-02-19T06:07:32.032Z,100074.31
2023-02-19T06:12:34.492Z,100080.81
2023-02-19T06:17:37.543Z,100089.16
2023-02-19T06:22:40.136Z,100094.09
2023-02-19T06:27:42.618Z,100103.03
2023-02-19T06:32:45.157Z,100083.75
2023-02-19T06:37:49.487Z,100108.28
2023-02-19T06:42:52.012Z,100038.44
2023-02-19T06:47:55.842Z,100068.22
2023-02-19T06:52:58.380Z,100108.34
2023-02-19T06:58:00.982Z,100092.75
2023-02-19T07:03:05.600Z,100096.81
2023-02-19T07:08:08.841Z,100108.75
2023-02-19T07:13:12.622Z,100109.34
2023-02-19T07:18:15.570Z,100100.22
2023-02-19T07:23:18.110Z,100072.72
2023-02-19T07:28:21.077Z,100123.34
2023-02-19T07:33:23.415Z,100128.19
2023-02-19T07:38:27.697Z,100146.81
2023-02-19T07:43:36.997Z,100133.47
2023-02-19T07:48:41.587Z,100109.13
2023-02-19T07:53:44.050Z,100122.47
2023-02-19T07:58:46.694Z,100123.47
2023-02-19T08:03:50.528Z,100126.47
2023-02-19T08:08:53.031Z,100122.81
2023-02-19T08:13:55.446Z,100140.16
2023-02-19T08:18:58.359Z,100140.16
2023-02-19T08:24:00.826Z,100148.66
2023-02-19T08:29:05.181Z,100149.94
2023-02-19T08:34:07.691Z,100136.75
2023-02-19T08:39:10.470Z,100140.66
2023-02-19T08:44:12.916Z,100158.50
2023-02-19T08:49:16.806Z,100137.84
2023-02-19T08:54:19.254Z,100137.00
2023-02-19T08:59:21.776Z,100157.31
2023-02-19T09:04:24.147Z,100150.84
2023-02-19T09:09:26.735Z,100155.50
2023-02-19T09:14:32.775Z,100159.50
2023-02-19T09:19:36.406Z,100142.28
2023-02-19T09:24:39.372Z,100150.13
2023-02-19T09:29:42.491Z,100163.69
2023-02-19T09:34:45.278Z,100149.94
2023-02-19T09:39:47.959Z,100155.84
2023-02-19T09:44:53.143Z,100140.88
2023-02-19T09:50:07.416Z,100133.19
2023-02-19T09:55:35.152Z,100145.34
2023-02-19T10:00:38.140Z,100172.47
2023-02-19T10:05:41.200Z,100147.97
2023-02-19T10:10:44.390Z,100173.72
2023-02-19T10:15:59.045Z,100163.00
2023-02-19T10:21:02.579Z,100161.38
2023-02-19T10:26:05.860Z,100152.91
2023-02-19T10:31:21.720Z,100175.81
2023-02-19T10:36:31.752Z,100156.56
2023-02-19T10:41:42.467Z,100177.03
2023-02-19T10:46:50.073Z,100174.41
2023-02-19T10:51:55.236Z,100156.97
2023-02-19T10:57:16.011Z,100194.25
2023-02-19T11:02:20.455Z,100200.53
2023-02-19T11:07:23.206Z,100203.75
2023-02-19T11:12:35.906Z,100145.97
2023-02-19T11:17:39.060Z,100199.69
2023-02-19T11:22:47.225Z,100199.28
2023-02-19T11:28:07.459Z,100208.22
2023-02-19T11:33:25.169Z,100217.91
2023-02-19T11:38:27.733Z,100229.25
2023-02-19T11:43:42.394Z,100218.53
2023-02-19T11:48:56.990Z,100209.63
2023-02-19T11:54:19.369Z,100217.72
2023-02-19T11:59:34.648Z,100226.44
2023-02-19T12:05:08.694Z,100237.16
2023-02-19T12:10:22.055Z,100248.28
2023-02-19T12:15:49.681Z,100255.78
2023-02-19T12:20:58.043Z,100273.75
2023-02-19T12:26:27.792Z,100274.34
2023-02-19T12:31:39.423Z,100278.66
2023-02-19T12:37:09.153Z,100284.72
2023-02-19T12:42:34.899Z,100279.25
2023-02-19T12:47:42.640Z,100281.88
2023-02-19T12:52:51.584Z,100288.34
2023-02-19T12:57:55.686Z,100259.53
2023-02-19T13:03:21.309Z,100304.97
2023-02-19T13:09:06.031Z,100304.78
2023-02-19T13:14:32.877Z,100275.69
2023-02-19T13:19:38.842Z,100298.84
2023-02-19T13:24:45.078Z,100308.06
2023-02-19T13:29:47.370Z,100328.53
2023-02-19T13:35:04.957Z,100332.16
2023-02-19T13:40:21.143Z,100327.44
2023-02-19T13:45:33.355Z,100349.72
2023-02-19T13:50:36.434Z,100345.28
2023-02-19T13:55:50.077Z,100353.56
2023-02-19T14:00:54.094Z,100361.63
2023-02-19T14:06:17.123Z,100252.50
2023-02-19T14:11:42.227Z,100356.41
2023-02-19T14:16:47.655Z,100366.53
2023-02-19T14:21:50.196Z,100335.63
2023-02-19T14:26:52.689Z,100273.16
2023-02-19T14:31:55.706Z,100325.91
2023-02-19T14:37:01.397Z,100353.00
2023-02-19T14:42:25.414Z,100369.25
2023-02-19T14:47:35.467Z,100347.66
2023-02-19T14:52:48.285Z,100352.84
2023-02-19T14:57:54.361Z,100386.31
2023-02-19T15:02:58.967Z,100362.88
2023-02-19T15:08:13.673Z,100399.34
2023-02-19T15:13:22.152Z,100398.81
2023-02-19T15:18:26.543Z,100387.81
2023-02-19T15:23:32.046Z,100414.22
2023-02-19T15:28:34.888Z,100419.09
2023-02-19T15:33:37.437Z,100331.56
2023-02-19T15:38:40.232Z,100326.03
2023-02-19T15:43:51.854Z,100279.06
2023-02-19T15:49:01.089Z,100414.97
2023-02-19T15:54:22.820Z,100310.13
2023-02-19T15:59:57.870Z,100365.41
2023-02-19T16:05:02.536Z,100365.84
2023-02-19T16:10:17.192Z,100439.09
2023-02-19T16:15:20.961Z,100389.50
2023-02-19T16:20:25.278Z,100414.31
2023-02-19T16:25:46.512Z,100440.16
2023-02-19T16:31:01.603Z,100452.28
2023-02-19T16:36:29.186Z,100442.66
2023-02-19T16:41:32.021Z,100431.91
2023-02-19T16:46:34.885Z,100446.94
2023-02-19T16:51:37.712Z,100436.44
2023-02-19T16:56:40.442Z,100427.38
2023-02-19T17:01:43.334Z,100401.41
2023-02-19T17:06:47.811Z,100424.88
2023-02-19T17:11:50.477Z,100408.88
2023-02-19T17:16:53.825Z,100422.84
2023-02-19T17:21:56.409Z,100430.47
2023-02-19T17:26:59.798Z,100434.91
2023-02-19T17:32:04.813Z,100430.41
2023-02-19T17:37:07.482Z,100456.91
2023-02-19T17:42:15.107Z,100414.13
2023-02-19T17:47:17.663Z,100440.00
2023-02-19T17:52:20.062Z,100449.63
2023-02-19T17:57:22.604Z,100446.91
2023-02-19T18:02:25.143Z,100451.97
2023-02-19T18:07:27.741Z,100396.00
2023-02-19T18:12:30.351Z,100424.84
2023-02-19T18:17:33.837Z,100453.59
2023-02-19T18:22:36.557Z,100456.66
2023-02-19T18:27:39.984Z,100396.63
2023-02-19T18:32:42.941Z,100459.84
2023-02-19T18:37:46.060Z,100454.13
2023-02-19T18:42:48.735Z,100473.56
2023-02-19T18:47:51.386Z,100456.75
2023-02-19T18:52:54.154Z,100471.22
2023-02-19T18:57:56.628Z,100471.06
2023-02-19T19:02:59.852Z,100466.44
2023-02-19T19:08:02.629Z,100457.38
2023-02-19T19:13:05.823Z,100443.69
2023-02-19T19:18:09.343Z,100465.78
2023-02-19T19:23:12.534Z,100406.66
2023-02-19T19:28:15.157Z,100450.34
2023-02-19T19:33:18.292Z,100474.41
2023-02-19T19:38:20.804Z,100485.41
2023-02-19T19:43:27.550Z,100479.25
2023-02-19T19:48:29.884Z,100482.47
2023-02-19T19:53:32.537Z,100455.44
2023-02-19T19:58:37.019Z,100457.84
2023-02-19T20:03:40.318Z,100497.88
2023-02-19T20:08:45.577Z,100479.00
2023-02-19T20:13:49.347Z,100481.06
2023-02-19T20:18:52.449Z,100451.00
2023-02-19T20:23:57.275Z,100483.13
2023-02-19T20:29:00.449Z,100511.81
2023-02-19T20:34:04.010Z,100472.69
2023-02-19T20:39:07.139Z,100503.78
2023-02-19T20:44:10.118Z,100508.50
2023-02-19T20:49:15.181Z,100508.34
2023-02-19T20:54:19.018Z,100517.09
2023-02-19T20:59:24.273Z,100483.31
2023-02-19T21:04:27.734Z,100497.31
2023-02-19T21:09:30.799Z,100466.00
2023-02-19T21:14:33.456Z,100491.00
2023-02-19T21:19:35.956Z,100517.63
2023-02-19T21:24:40.893Z,100485.41
2023-02-19T21:29:43.824Z,100531.09
2023-02-19T21:34:47.530Z,100527.44
2023-02-19T21:39:50.654Z,100474.66
2023-02-19T21:44:53.348Z,100489.19
2023-02-19T21:49:57.292Z,100416.81
2023-02-19T21:54:59.771Z,100504.56
2023-02-19T22:00:02.680Z,100491.22
2023-02-19T22:05:10.661Z,100481.06
2023-02-19T22:10:13.830Z,100491.88
2023-02-19T22:15:18.749Z,100511.97
2023-02-19T22:20:21.902Z,100482.16
2023-02-19T22:25:24.891Z,100497.69
2023-02-19T22:30:27.969Z,100474.66
2023-02-19T22:35:30.540Z,100476.72
2023-02-19T22:40:33.622Z,100496.47
2023-02-19T22:45:36.170Z,100430.91
2023-02-19T22:50:41.120Z,100487.41
2023-02-19T22:55:43.541Z,100495.53
2023-02-19T23:00:47.458Z,100504.00
2023-02-19T23:05:50.744Z,100497.59
2023-02-19T23:10:56.384Z,100498.81
2023-02-19T23:15:59.692Z,100476.22
2023-02-19T23:21:02.371Z,100480.81
2023-02-19T23:26:07.074Z,100481.69
2023-02-19T23:31:11.345Z,100462.84
2023-02-19T23:36:16.141Z,100471.47
2023-02-19T23:41:19.837Z,100471.78
2023-02-19T23:46:22.775Z,100444.63
2023-02-19T23:51:25.532Z,100435.19
2023-02-19T23:56:29.870Z,100471.09
